createdAt,value
2017-09-10T00:00:12.054Z,94.60
2017-09-10T00:02:39.541Z,94.70
2017-09-10T00:05:07.030Z,94.80
2017-09-10T00:07:34.569Z,95.20
2017-09-10T00:10:02.070Z,94.80
2017-09-10T00:12:29.560Z,94.70
2017-09-10T00:14:57.871Z,94.70
2017-09-10T00:17:25.362Z,94.70
2017-09-10T00:19:52.858Z,94.80
2017-09-10T00:22:20.379Z,94.80
2017-09-10T00:24:47.878Z,94.60
2017-09-10T00:27:16.176Z,94.30
2017-09-10T00:29:43.666Z,94.60
2017-09-10T00:32:11.158Z,94.20
2017-09-10T00:34:38.690Z,94.00
2017-09-10T00:37:07.383Z,94.10
2017-09-10T00:39:34.881Z,94.10
2017-09-10T00:42:03.174Z,94.00
2017-09-10T00:44:30.665Z,93.90
2017-09-10T00:46:58.158Z,94.00
2017-09-10T00:49:25.670Z,94.20
2017-09-10T00:51:53.930Z,94.20
2017-09-10T00:54:21.452Z,94.20
2017-09-10T00:56:48.938Z,94.30
2017-09-10T00:59:16.469Z,94.30
2017-09-10T01:01:44.722Z,94.30
2017-09-10T01:04:12.993Z,94.40
2017-09-10T01:06:41.290Z,94.40
2017-09-10T01:09:08.790Z,94.40
2017-09-10T01:11:37.089Z,94.40
2017-09-10T01:14:04.578Z,94.40
2017-09-10T01:16:32.076Z,94.50
2017-09-10T01:18:59.598Z,94.40
2017-09-10T01:21:27.906Z,94.40
2017-09-10T01:23:55.433Z,94.70
2017-09-10T01:26:22.934Z,94.50
2017-09-10T01:28:51.194Z,94.50
2017-09-10T01:31:19.470Z,94.70
2017-09-10T01:33:47.002Z,94.70
2017-09-10T01:36:15.252Z,94.60
2017-09-10T01:38:43.506Z,94.60
2017-09-10T01:41:11.020Z,94.60
2017-09-10T01:43:38.518Z,94.80
2017-09-10T01:46:06.069Z,94.90
2017-09-10T01:48:33.554Z,95.10
2017-09-10T01:51:01.079Z,95.10
2017-09-10T01:53:28.570Z,95.00
2017-09-10T01:55:56.066Z,95.00
2017-09-10T01:58:23.585Z,94.90
2017-09-10T02:00:51.086Z,95.00
2017-09-10T02:03:18.618Z,95.00
2017-09-10T02:05:46.126Z,95.00
2017-09-10T02:08:13.614Z,95.00
2017-09-10T02:10:41.134Z,95.00
2017-09-10T02:13:08.630Z,95.10
2017-09-10T02:15:36.170Z,95.10
2017-09-10T02:18:03.695Z,95.00
2017-09-10T02:20:31.205Z,95.00
2017-09-10T02:22:58.694Z,94.90
2017-09-10T02:25:26.971Z,94.90
2017-09-10T02:27:54.486Z,94.90
2017-09-10T02:30:21.984Z,94.80
2017-09-10T02:32:49.493Z,94.70
2017-09-10T02:35:17.795Z,94.90
2017-09-10T02:37:45.285Z,94.90
2017-09-10T02:40:13.550Z,94.90
2017-09-10T02:42:41.846Z,94.90
2017-09-10T02:45:09.339Z,94.90
2017-09-10T02:47:36.839Z,95.00
2017-09-10T02:50:04.362Z,94.90
2017-09-10T02:52:31.861Z,95.10
2017-09-10T02:54:59.473Z,95.10
2017-09-10T02:57:26.977Z,95.20
2017-09-10T02:59:54.478Z,95.30
2017-09-10T03:02:22.014Z,95.30
2017-09-10T03:04:49.506Z,95.30
2017-09-10T03:07:17.001Z,95.20
2017-09-10T03:09:44.518Z,95.00
2017-09-10T03:12:12.019Z,95.00
2017-09-10T03:14:40.321Z,95.10
2017-09-10T03:17:07.816Z,95.10
2017-09-10T03:19:36.118Z,95.40
2017-09-10T03:22:03.776Z,95.40
2017-09-10T03:24:32.260Z,95.40
2017-09-10T03:26:59.750Z,95.20
2017-09-10T03:29:27.278Z,95.20
2017-09-10T03:31:55.697Z,95.40
2017-09-10T03:34:23.953Z,95.00
2017-09-10T03:36:52.394Z,95.00
2017-09-10T03:39:19.886Z,94.90
2017-09-10T03:41:50.170Z,94.90
2017-09-10T03:44:18.118Z,94.90
2017-09-10T03:46:46.465Z,94.90
2017-09-10T03:49:13.993Z,95.00
2017-09-10T03:51:42.249Z,94.90
2017-09-10T03:54:10.544Z,95.10
2017-09-10T03:56:38.035Z,95.10
2017-09-10T03:59:05.529Z,95.10
2017-09-10T04:01:33.057Z,95.10
2017-09-10T04:04:00.545Z,95.00
2017-09-10T04:06:28.049Z,95.10
2017-09-10T04:08:55.590Z,95.20
2017-09-10T04:11:23.729Z,95.50
2017-09-10T04:13:51.320Z,95.70
2017-09-10T04:16:20.307Z,95.70
2017-09-10T04:18:47.815Z,95.60
2017-09-10T04:21:15.305Z,95.60
2017-09-10T04:23:43.581Z,95.50
2017-09-10T04:26:12.038Z,95.50
2017-09-10T04:28:39.647Z,95.40
2017-09-10T04:31:07.921Z,95.60
2017-09-10T04:33:36.142Z,95.70
2017-09-10T04:36:04.002Z,95.90
2017-09-10T04:38:32.458Z,96.00
2017-09-10T04:40:59.971Z,95.90
2017-09-10T04:43:27.526Z,96.00
2017-09-10T04:45:55.025Z,95.80
2017-09-10T04:48:23.558Z,95.80
2017-09-10T04:50:51.117Z,95.70
2017-09-10T04:53:18.719Z,95.30
2017-09-10T04:55:46.257Z,95.10
2017-09-10T04:58:13.777Z,95.40
2017-09-10T05:00:41.278Z,95.50
2017-09-10T05:03:08.803Z,95.50
2017-09-10T05:05:36.294Z,95.70
2017-09-10T05:08:03.796Z,95.50
2017-09-10T05:10:32.082Z,95.40
2017-09-10T05:12:59.570Z,95.40
2017-09-10T05:15:27.102Z,95.40
2017-09-10T05:17:54.616Z,95.40
2017-09-10T05:20:22.105Z,95.70
2017-09-10T05:22:49.626Z,95.70
2017-09-10T05:25:17.120Z,95.70
2017-09-10T05:27:45.382Z,96.10
2017-09-10T05:30:13.682Z,95.60
2017-09-10T05:32:41.213Z,95.60
2017-09-10T05:35:08.739Z,95.80
2017-09-10T05:37:36.231Z,95.70
2017-09-10T05:40:03.782Z,95.50
2017-09-10T05:42:31.274Z,95.60
2017-09-10T05:44:59.570Z,95.40
2017-09-10T05:47:27.063Z,95.40
2017-09-10T05:49:54.553Z,95.30
2017-09-10T05:52:22.080Z,95.30
2017-09-10T05:54:49.578Z,95.10
2017-09-10T05:57:17.095Z,95.10
2017-09-10T05:59:44.614Z,95.20
2017-09-10T06:02:12.117Z,95.40
2017-09-10T06:04:40.398Z,95.00
2017-09-10T06:07:07.882Z,95.00
2017-09-10T06:09:35.405Z,94.70
2017-09-10T06:12:02.906Z,94.50
2017-09-10T06:14:31.191Z,94.50
2017-09-10T06:16:58.709Z,94.50
2017-09-10T06:19:26.201Z,94.60
2017-09-10T06:21:53.769Z,94.80
2017-09-10T06:24:21.258Z,94.70
2017-09-10T06:26:49.523Z,94.80
2017-09-10T06:29:17.059Z,94.80
2017-09-10T06:31:44.562Z,94.70
2017-09-10T06:34:12.053Z,94.40
2017-09-10T06:36:40.279Z,94.10
2017-09-10T06:39:07.776Z,93.50
2017-09-10T06:41:35.266Z,93.20
2017-09-10T06:44:02.790Z,93.00
2017-09-10T06:46:30.317Z,92.40
2017-09-10T06:48:57.806Z,92.20
2017-09-10T06:51:26.121Z,91.90
2017-09-10T06:53:53.618Z,91.80
2017-09-10T06:56:21.877Z,91.40
2017-09-10T06:58:50.159Z,91.30
2017-09-10T07:01:17.706Z,91.30
2017-09-10T07:03:45.242Z,91.10
2017-09-10T07:06:12.741Z,91.50
2017-09-10T07:08:40.256Z,90.60
2017-09-10T07:11:07.749Z,90.50
2017-09-10T07:13:36.042Z,90.30
2017-09-10T07:16:03.550Z,90.20
2017-09-10T07:18:31.821Z,90.90
2017-09-10T07:21:00.138Z,89.60
2017-09-10T07:23:27.627Z,89.60
2017-09-10T07:25:55.906Z,89.60
2017-09-10T07:28:23.430Z,89.60
2017-09-10T07:30:51.678Z,89.70
2017-09-10T07:33:19.174Z,89.60
2017-09-10T07:35:46.707Z,90.10
2017-09-10T07:38:14.233Z,89.50
2017-09-10T07:40:41.720Z,89.20
2017-09-10T07:43:09.253Z,88.80
2017-09-10T07:45:36.743Z,89.90
2017-09-10T07:48:05.002Z,90.40
2017-09-10T07:50:32.557Z,90.00
2017-09-10T07:53:00.069Z,90.20
2017-09-10T07:55:27.604Z,90.20
2017-09-10T07:57:55.099Z,89.50
2017-09-10T08:00:23.362Z,88.40
2017-09-10T08:02:50.879Z,88.40
2017-09-10T08:05:19.142Z,89.60
2017-09-10T08:07:47.424Z,89.20
2017-09-10T08:10:15.710Z,88.50
2017-09-10T08:12:43.206Z,88.40
2017-09-10T08:15:10.736Z,88.60
2017-09-10T08:17:38.241Z,88.50
2017-09-10T08:20:05.738Z,88.40
2017-09-10T08:22:34.034Z,88.30
2017-09-10T08:25:01.546Z,88.30
2017-09-10T08:27:29.797Z,87.10
2017-09-10T08:29:57.313Z,87.10
2017-09-10T08:32:24.813Z,87.50
2017-09-10T08:34:52.342Z,87.30
2017-09-10T08:37:20.603Z,85.50
2017-09-10T08:39:48.858Z,85.20
2017-09-10T08:42:17.155Z,85.90
2017-09-10T08:44:44.657Z,85.90
2017-09-10T08:47:13.005Z,87.00
2017-09-10T08:49:40.530Z,87.00
2017-09-10T08:52:08.021Z,86.40
2017-09-10T08:54:36.281Z,85.10
2017-09-10T08:57:03.806Z,85.10
2017-09-10T08:59:32.074Z,87.80
2017-09-10T09:01:59.734Z,87.00
2017-09-10T09:04:28.017Z,84.50
2017-09-10T09:06:55.504Z,84.50
2017-09-10T09:09:23.026Z,83.60
2017-09-10T09:11:50.566Z,83.90
2017-09-10T09:14:18.065Z,83.80
2017-09-10T09:16:46.321Z,81.90
2017-09-10T09:19:13.862Z,81.70
2017-09-10T09:21:42.131Z,83.30
2017-09-10T09:24:10.394Z,82.40
2017-09-10T09:26:38.690Z,83.60
2017-09-10T09:29:06.188Z,83.60
2017-09-10T09:31:34.625Z,81.70
2017-09-10T09:34:02.146Z,81.60
2017-09-10T09:36:30.446Z,81.90
2017-09-10T09:38:57.946Z,81.70
2017-09-10T09:41:25.439Z,81.60
2017-09-10T09:43:53.733Z,81.10
2017-09-10T09:46:21.225Z,80.70
2017-09-10T09:48:48.717Z,81.90
2017-09-10T09:51:16.278Z,81.30
2017-09-10T09:53:43.770Z,79.60
2017-09-10T09:56:11.263Z,80.80
2017-09-10T09:58:38.793Z,81.70
2017-09-10T10:01:06.278Z,81.70
2017-09-10T10:03:33.766Z,81.20
2017-09-10T10:06:01.314Z,79.50
2017-09-10T10:08:28.828Z,79.40
2017-09-10T10:10:56.319Z,78.70
2017-09-10T10:13:23.852Z,78.80
2017-09-10T10:15:51.340Z,78.80
2017-09-10T10:18:18.846Z,77.90
2017-09-10T10:20:46.382Z,76.80
2017-09-10T10:23:13.875Z,78.10
2017-09-10T10:25:41.406Z,77.90
2017-09-10T10:28:08.945Z,78.00
2017-09-10T10:30:36.462Z,76.90
2017-09-10T10:33:04.778Z,76.60
2017-09-10T10:35:32.322Z,76.60
2017-09-10T10:38:00.634Z,76.00
2017-09-10T10:40:28.134Z,75.90
2017-09-10T10:42:55.718Z,76.10
2017-09-10T10:45:23.214Z,75.80
2017-09-10T10:47:50.709Z,74.10
2017-09-10T10:50:18.240Z,75.60
2017-09-10T10:52:45.743Z,74.60
2017-09-10T10:55:13.237Z,73.50
2017-09-10T10:57:40.766Z,72.30
2017-09-10T11:00:08.269Z,73.90
2017-09-10T11:02:36.523Z,72.50
2017-09-10T11:05:04.846Z,72.10
2017-09-10T11:07:32.341Z,72.20
2017-09-10T11:10:00.597Z,71.50
2017-09-10T11:12:28.887Z,72.20
2017-09-10T11:14:56.381Z,72.20
2017-09-10T11:17:23.887Z,70.50
2017-09-10T11:19:51.426Z,72.40
2017-09-10T11:22:18.927Z,71.90
2017-09-10T11:24:47.236Z,71.70
2017-09-10T11:27:14.760Z,71.50
2017-09-10T11:29:43.026Z,72.20
2017-09-10T11:32:10.525Z,71.00
2017-09-10T11:34:38.054Z,72.80
2017-09-10T11:37:06.323Z,70.20
2017-09-10T11:39:33.831Z,70.20
2017-09-10T11:42:01.377Z,70.10
2017-09-10T11:44:28.870Z,69.40
2017-09-10T11:46:57.309Z,69.80
2017-09-10T11:49:24.928Z,70.00
2017-09-10T11:51:52.437Z,71.60
2017-09-10T11:54:20.754Z,72.10
2017-09-10T11:56:49.025Z,70.70
2017-09-10T11:59:16.582Z,70.60
2017-09-10T12:01:44.120Z,69.80
2017-09-10T12:04:11.626Z,70.60
2017-09-10T12:06:39.130Z,70.90
2017-09-10T12:09:07.753Z,71.50
2017-09-10T12:11:35.290Z,71.10
2017-09-10T12:14:03.001Z,71.30
2017-09-10T12:16:30.622Z,70.40
2017-09-10T12:18:58.871Z,68.50
2017-09-10T12:21:26.424Z,68.80
2017-09-10T12:23:53.962Z,70.10
2017-09-10T12:26:21.454Z,70.20
2017-09-10T12:28:49.724Z,70.10
2017-09-10T12:31:17.243Z,70.10
2017-09-10T12:33:44.774Z,70.50
2017-09-10T12:36:12.266Z,70.20
2017-09-10T12:38:39.801Z,69.00
2017-09-10T12:41:07.298Z,69.20
2017-09-10T12:43:34.828Z,70.40
2017-09-10T12:46:02.357Z,70.30
2017-09-10T12:48:29.862Z,67.10
2017-09-10T12:51:00.212Z,68.50
2017-09-10T12:53:27.774Z,68.30
2017-09-10T12:55:57.228Z,69.20
2017-09-10T12:58:24.756Z,69.10
2017-09-10T13:00:52.262Z,70.20
2017-09-10T13:03:20.657Z,69.50
2017-09-10T13:05:48.262Z,69.50
2017-09-10T13:08:15.771Z,70.20
2017-09-10T13:10:43.313Z,69.50
2017-09-10T13:13:11.581Z,70.50
2017-09-10T13:15:39.110Z,70.40
2017-09-10T13:18:06.620Z,70.00
2017-09-10T13:20:34.110Z,71.40
2017-09-10T13:23:02.405Z,71.90
2017-09-10T13:25:29.908Z,71.90
2017-09-10T13:27:58.170Z,69.20
2017-09-10T13:30:26.470Z,70.60
2017-09-10T13:32:54.002Z,70.60
2017-09-10T13:35:21.517Z,70.40
2017-09-10T13:37:49.796Z,70.80
2017-09-10T13:40:18.082Z,69.60
2017-09-10T13:42:45.597Z,69.50
2017-09-10T13:45:13.906Z,69.70
2017-09-10T13:47:41.398Z,69.60
2017-09-10T13:50:09.689Z,69.10
2017-09-10T13:52:37.190Z,69.00
2017-09-10T13:55:04.726Z,70.80
2017-09-10T13:57:32.340Z,71.50
2017-09-10T13:59:59.829Z,70.60
2017-09-10T14:02:28.123Z,69.60
2017-09-10T14:04:55.636Z,69.60
2017-09-10T14:07:23.904Z,70.40
2017-09-10T14:09:52.217Z,70.80
2017-09-10T14:12:19.763Z,70.80
2017-09-10T14:14:47.301Z,72.00
2017-09-10T14:17:14.822Z,70.60
2017-09-10T14:19:42.332Z,70.80
2017-09-10T14:22:10.633Z,70.90
2017-09-10T14:24:38.130Z,70.80
2017-09-10T14:27:06.453Z,69.10
2017-09-10T14:29:33.982Z,69.10
2017-09-10T14:32:01.520Z,70.10
2017-09-10T14:34:29.019Z,70.60
2017-09-10T14:36:57.318Z,70.20
2017-09-10T14:39:24.870Z,70.20
2017-09-10T14:41:52.370Z,70.60
2017-09-10T14:44:20.634Z,71.80
2017-09-10T14:46:48.162Z,71.00
2017-09-10T14:49:15.661Z,71.90
2017-09-10T14:51:43.203Z,72.80
2017-09-10T14:54:10.710Z,72.40
2017-09-10T14:56:38.971Z,72.10
2017-09-10T14:59:07.283Z,71.60
2017-09-10T15:01:34.782Z,71.60
2017-09-10T15:04:03.043Z,73.10
2017-09-10T15:06:30.566Z,73.10
2017-09-10T15:08:58.063Z,72.60
2017-09-10T15:11:25.558Z,72.60
2017-09-10T15:13:53.845Z,73.50
2017-09-10T15:16:21.342Z,72.90
2017-09-10T15:18:48.861Z,72.60
2017-09-10T15:21:16.353Z,72.50
2017-09-10T15:23:44.669Z,71.30
2017-09-10T15:26:12.176Z,71.30
2017-09-10T15:28:40.458Z,71.10
2017-09-10T15:31:08.005Z,71.10
2017-09-10T15:33:35.509Z,70.90
2017-09-10T15:36:03.770Z,71.10
2017-09-10T15:38:31.325Z,71.00
2017-09-10T15:40:58.822Z,72.40
2017-09-10T15:43:26.325Z,72.00
2017-09-10T15:45:53.845Z,69.60
2017-09-10T15:48:22.110Z,70.50
2017-09-10T15:50:49.645Z,70.50
2017-09-10T15:53:17.930Z,72.90
2017-09-10T15:55:45.422Z,72.30
2017-09-10T15:58:12.950Z,71.70
2017-09-10T16:00:40.438Z,72.60
2017-09-10T16:03:07.935Z,72.00
2017-09-10T16:05:35.469Z,72.50
2017-09-10T16:08:02.961Z,72.50
2017-09-10T16:10:31.226Z,72.80
2017-09-10T16:12:58.745Z,72.80
2017-09-10T16:15:26.242Z,73.50
2017-09-10T16:17:55.438Z,73.40
2017-09-10T16:20:22.946Z,73.50
2017-09-10T16:22:50.446Z,71.50
2017-09-10T16:25:18.001Z,73.00
2017-09-10T16:27:46.247Z,71.20
2017-09-10T16:30:15.529Z,72.00
2017-09-10T16:32:43.058Z,72.30
2017-09-10T16:35:11.712Z,71.80
2017-09-10T16:37:39.216Z,71.50
2017-09-10T16:40:06.718Z,71.50
2017-09-10T16:42:34.799Z,72.50
2017-09-10T16:45:02.637Z,73.10
2017-09-10T16:47:30.282Z,72.90
2017-09-10T16:49:58.746Z,73.70
2017-09-10T16:52:27.094Z,75.50
2017-09-10T16:54:54.631Z,74.70
2017-09-10T16:57:22.164Z,75.10
2017-09-10T16:59:49.662Z,75.40
2017-09-10T17:02:17.154Z,76.00
2017-09-10T17:04:44.701Z,76.10
2017-09-10T17:07:12.217Z,77.20
2017-09-10T17:09:39.708Z,76.60
2017-09-10T17:12:07.251Z,76.90
2017-09-10T17:14:34.746Z,77.60
2017-09-10T17:17:03.005Z,78.40
2017-09-10T17:19:31.743Z,78.40
2017-09-10T17:22:00.783Z,79.00
2017-09-10T17:24:29.331Z,78.90
2017-09-10T17:26:58.179Z,79.50
2017-09-10T17:29:25.710Z,80.10
2017-09-10T17:31:53.958Z,80.20
2017-09-10T17:34:23.180Z,80.80
2017-09-10T17:36:50.762Z,80.70
2017-09-10T17:39:18.264Z,81.20
2017-09-10T17:41:45.759Z,81.50
2017-09-10T17:44:13.290Z,81.60
2017-09-10T17:46:40.777Z,81.90
2017-09-10T17:49:09.073Z,82.10
2017-09-10T17:51:37.395Z,82.30
2017-09-10T17:54:04.883Z,82.30
2017-09-10T17:56:33.163Z,82.70
2017-09-10T17:59:00.694Z,82.80
2017-09-10T18:01:28.194Z,83.00
2017-09-10T18:03:55.701Z,83.20
2017-09-10T18:06:23.257Z,83.40
2017-09-10T18:08:50.913Z,83.60
2017-09-10T18:11:18.426Z,83.70
2017-09-10T18:13:45.976Z,84.00
2017-09-10T18:16:13.486Z,84.40
2017-09-10T18:18:41.750Z,84.70
2017-09-10T18:21:10.054Z,84.60
2017-09-10T18:23:37.552Z,84.60
2017-09-10T18:26:05.042Z,84.70
2017-09-10T18:28:32.594Z,84.60
2017-09-10T18:31:00.090Z,84.80
2017-09-10T18:33:27.592Z,84.50
2017-09-10T18:35:55.106Z,84.60
2017-09-10T18:38:22.618Z,84.50
2017-09-10T18:40:50.158Z,85.10
2017-09-10T18:43:18.429Z,84.50
2017-09-10T18:45:45.917Z,84.50
2017-09-10T18:48:13.457Z,84.70
2017-09-10T18:50:40.966Z,85.00
2017-09-10T18:53:08.454Z,84.90
2017-09-10T18:55:35.985Z,84.70
2017-09-10T18:58:03.481Z,84.80
2017-09-10T19:00:30.990Z,85.00
2017-09-10T19:02:58.507Z,84.60
2017-09-10T19:05:26.039Z,84.50
2017-09-10T19:07:53.538Z,84.50
2017-09-10T19:10:21.034Z,84.30
2017-09-10T19:12:48.597Z,84.30
2017-09-10T19:15:16.095Z,84.40
2017-09-10T19:17:43.606Z,84.20
2017-09-10T19:20:11.938Z,84.10
2017-09-10T19:22:39.437Z,84.10
2017-09-10T19:25:06.928Z,83.60
2017-09-10T19:27:34.470Z,83.80
2017-09-10T19:30:01.983Z,83.40
2017-09-10T19:32:29.529Z,83.60
2017-09-10T19:34:57.034Z,84.10
2017-09-10T19:37:24.530Z,84.30
2017-09-10T19:39:52.278Z,83.90
2017-09-10T19:42:19.810Z,84.10
2017-09-10T19:44:47.321Z,83.90
2017-09-10T19:47:15.620Z,83.90
2017-09-10T19:49:43.159Z,83.80
2017-09-10T19:52:10.711Z,83.80
2017-09-10T19:54:38.213Z,83.90
2017-09-10T19:57:06.514Z,83.90
2017-09-10T19:59:34.015Z,83.80
2017-09-10T20:02:01.515Z,83.90
2017-09-10T20:04:29.100Z,83.80
2017-09-10T20:06:57.357Z,84.10
2017-09-10T20:09:25.612Z,84.50
2017-09-10T20:11:53.155Z,84.50
2017-09-10T20:14:20.647Z,84.30
2017-09-10T20:16:48.154Z,84.50
2017-09-10T20:19:16.459Z,84.80
2017-09-10T20:21:43.976Z,84.60
2017-09-10T20:24:11.466Z,84.90
2017-09-10T20:26:38.979Z,85.00
2017-09-10T20:29:06.485Z,85.20
2017-09-10T20:31:34.781Z,85.30
2017-09-10T20:34:02.294Z,85.20
2017-09-10T20:36:30.546Z,85.10
2017-09-10T20:38:58.840Z,85.40
2017-09-10T20:41:26.342Z,85.40
2017-09-10T20:43:53.830Z,85.70
2017-09-10T20:46:21.357Z,85.60
2017-09-10T20:48:48.857Z,85.80
2017-09-10T20:51:17.115Z,85.80
2017-09-10T20:53:44.645Z,85.20
2017-09-10T20:56:12.146Z,85.80
2017-09-10T20:58:39.638Z,86.00
2017-09-10T21:01:07.170Z,85.90
2017-09-10T21:03:35.446Z,86.30
2017-09-10T21:06:02.946Z,86.30
2017-09-10T21:08:30.478Z,86.40
2017-09-10T21:10:58.736Z,86.30
2017-09-10T21:13:26.993Z,86.30
2017-09-10T21:15:55.277Z,86.60
2017-09-10T21:18:22.766Z,86.40
2017-09-10T21:20:50.273Z,86.40
2017-09-10T21:23:17.799Z,86.30
2017-09-10T21:25:45.294Z,86.30
2017-09-10T21:28:12.809Z,86.20
2017-09-10T21:30:40.303Z,86.40
2017-09-10T21:33:08.602Z,87.30
2017-09-10T21:35:36.091Z,86.60
2017-09-10T21:38:03.590Z,86.90
2017-09-10T21:40:31.121Z,86.50
2017-09-10T21:42:58.618Z,86.30
2017-09-10T21:45:26.113Z,86.50
2017-09-10T21:47:53.634Z,86.40
2017-09-10T21:50:21.129Z,86.70
2017-09-10T21:52:49.422Z,86.50
2017-09-10T21:55:16.932Z,86.50
2017-09-10T21:57:44.466Z,86.60
2017-09-10T22:00:11.961Z,86.90
2017-09-10T22:02:40.230Z,87.10
2017-09-10T22:05:08.517Z,86.50
2017-09-10T22:07:36.042Z,86.50
2017-09-10T22:10:03.538Z,86.80
2017-09-10T22:12:31.030Z,86.80
2017-09-10T22:14:58.562Z,86.70
2017-09-10T22:17:26.823Z,87.10
2017-09-10T22:19:55.081Z,86.90
2017-09-10T22:22:23.372Z,87.00
2017-09-10T22:24:50.866Z,87.00
2017-09-10T22:27:51.077Z,86.60
2017-09-10T22:30:18.569Z,86.80
2017-09-10T22:32:46.074Z,86.90
2017-09-10T22:35:14.364Z,86.70
2017-09-10T22:37:41.869Z,86.70
2017-09-10T22:40:09.394Z,86.70
2017-09-10T22:42:36.894Z,87.40
2017-09-10T22:45:04.431Z,87.10
2017-09-10T22:47:31.931Z,86.70
2017-09-10T22:49:59.432Z,86.60
2017-09-10T22:52:26.954Z,86.50
2017-09-10T22:54:54.446Z,86.60
2017-09-10T22:57:21.974Z,86.50
2017-09-10T22:59:49.481Z,86.60
2017-09-10T23:02:17.358Z,86.90
2017-09-10T23:04:44.893Z,86.80
2017-09-10T23:07:12.395Z,86.60
2017-09-10T23:09:40.670Z,86.30
2017-09-10T23:12:08.957Z,86.50
2017-09-10T23:14:36.447Z,86.50
2017-09-10T23:17:03.974Z,86.50
2017-09-10T23:19:31.470Z,86.00
2017-09-10T23:21:59.734Z,86.20
2017-09-10T23:24:27.261Z,86.20
2017-09-10T23:26:54.752Z,86.00
2017-09-10T23:29:22.243Z,85.80
2017-09-10T23:31:50.517Z,86.00
2017-09-10T23:34:18.774Z,85.90
2017-09-10T23:36:47.117Z,86.10
2017-09-10T23:39:14.605Z,86.00
2017-09-10T23:41:42.098Z,86.00
2017-09-10T23:44:09.647Z,86.20
2017-09-10T23:46:37.145Z,86.70
2017-09-10T23:49:04.630Z,88.60
2017-09-10T23:51:32.162Z,90.10
2017-09-10T23:53:59.650Z,90.30
2017-09-10T23:56:27.142Z,90.70
2017-09-10T23:58:55.443Z,91.20
